WEATHER DATA

TODAY
Time Temp. Dewp. Hum. Wind dir Wind speed Wind gust Bar. 1h Prec. 24h Prec.
00:01 22.1 13.5 58 18 0.6 1.9 1018.7 0.0000 0.0000
00:10 22 13.4 58 18 0.6 1.9 1018.8 0.0000 0.0000
00:21 21.8 13.4 59 18 0.6 1.9 1018.8 0.0000 0.0000
00:31 21.6 13.8 61 18 0.6 1.9 1018.9 0.0000 0.0000
00:41 21.4 13.6 61 18 0.6 1.9 1019 0.0000 0.0000
00:51 21.2 13.6 62 18 0.6 1.9 1018.8 0.0000 0.0000
01:01 21 13.4 62 18 0.6 1.9 1018.9 0.0000 0.0000
01:11 20.7 13.2 62 18 0.6 1.9 1018.9 0.0000 0.0000
01:21 20.5 13.2 63 18 0.6 1.9 1018.9 0.0000 0.0000
01:31 20.4 13.4 64 18 0.6 1.9 1018.8 0.0000 0.0000
01:41 20.2 13.4 65 18 0.6 1.9 1018.9 0.0000 0.0000
01:51 20 13.2 65 18 0.6 1.9 1018.9 0.0000 0.0000
02:01 19.8 13.3 66 18 0.6 1.9 1019 0.0000 0.0000
02:11 19.7 13.4 67 18 0.6 1.9 1019 0.0000 0.0000
02:21 19.6 13.3 67 18 0.6 1.9 1018.9 0.0000 0.0000
02:31 19.4 13.1 67 18 0.6 1.9 1018.8 0.0000 0.0000
02:42 19.3 13.3 68 18 0.6 1.9 1018.8 0.0000 0.0000
02:51 19.2 13.2 68 18 0.6 1.9 1018.8 0.0000 0.0000
03:01 19 13.2 69 18 0.6 1.9 1018.9 0.0000 0.0000
03:12 18.8 13 69 18 0.6 1.9 1019.1 0.0000 0.0000
03:21 18.7 13.1 70 18 0.6 1.9 1019 0.0000 0.0000
03:31 18.5 13.1 71 18 0.6 1.9 1018.8 0.0000 0.0000
03:41 18.3 13 71 18 0.6 1.9 1018.8 0.0000 0.0000
03:52 18.2 13.1 72 18 0.6 1.9 1018.9 0.0000 0.0000
04:01 18.1 13 72 18 0.6 1.9 1018.9 0.0000 0.0000
04:11 18 13.1 73 18 0.6 1.9 1018.8 0.0000 0.0000
04:22 17.8 12.9 73 18 0.6 1.9 1018.9 0.0000 0.0000
04:32 17.5 12.8 74 18 0.6 1.9 1018.9 0.0000 0.0000
04:41 17.3 12.6 74 18 0.6 1.9 1019 0.0000 0.0000
04:51 17.1 12.6 75 18 0.6 1.9 1018.9 0.0000 0.0000
05:02 17 12.7 76 18 0.6 1.9 1018.7 0.0000 0.0000
05:12 17 12.7 76 18 0.6 1.9 1018.6 0.0000 0.0000
05:21 16.9 12.6 76 18 0.6 1.9 1018.6 0.0000 0.0000
05:32 16.8 12.6 76 18 0.6 1.9 1018.8 0.0000 0.0000
05:42 16.8 12.7 77 18 0.6 1.9 1018.7 0.0000 0.0000
05:52 16.7 12.7 77 18 0.6 1.9 1018.8 0.0000 0.0000
06:02 16.7 12.7 77 18 0.6 1.9 1018.7 0.0000 0.0000
06:12 16.7 12.7 77 18 0.6 1.9 1018.7 0.0000 0.0000
06:22 16.7 12.7 77 18 0.6 1.9 1018.7 0.0000 0.0000
06:31 16.6 12.6 77 18 0.6 1.9 1018.8 0.0000 0.0000
06:42 16.6 12.8 78 18 0.6 1.9 1018.7 0.0000 0.0000
06:52 16.6 12.8 78 18 0.6 1.9 1018.9 0.0000 0.0000
07:02 16.6 12.8 78 18 0.6 1.9 1018.7 0.0000 0.0000
07:12 16.6 12.8 78 18 0.6 1.9 1018.8 0.0000 0.0000
07:22 16.7 13 79 18 0.6 1.9 1018.8 0.0000 0.0000
07:32 16.8 13.1 79 18 0.6 1.9 1019 0.0000 0.0000
07:42 17 13.3 79 18 0.6 1.9 1019.1 0.0000 0.0000
07:52 17.2 13.3 78 18 0.6 1.9 1019.4 0.0000 0.0000
08:02 17.5 13.4 77 18 0.6 1.9 1019.4 0.0000 0.0000
08:12 17.7 13.6 77 18 0.6 1.9 1019.5 0.0000 0.0000
08:22 18 13.9 77 18 0.6 1.9 1019.7 0.0000 0.0000
08:32 18.3 14 76 18 0.6 1.9 1019.7 0.0000 0.0000
08:42 18.6 14.1 75 18 0.6 1.9 1019.8 0.0000 0.0000
08:52 19 14.7 76 18 0.6 1.9 1019.7 0.0000 0.0000
09:02 19.4 14.9 75 18 0.6 1.9 1019.9 0.0000 0.0000
09:12 20 15 73 18 0.6 1.9 1019.8 0.0000 0.0000
09:22 20.7 15.3 71 18 0.6 1.9 1019.9 0.0000 0.0000
09:33 21.2 15.5 70 18 0.6 1.9 1020 0.0000 0.0000
09:43 21.6 15.4 68 18 0.6 1.9 1020 0.0000 0.0000
09:53 21.9 15.7 68 18 0.6 1.9 1020 0.0000 0.0000
10:03 22.2 15.8 67 18 0.6 1.9 1020 0.0000 0.0000
10:13 22.5 16.1 67 18 0.6 1.9 1019.8 0.0000 0.0000
10:23 22.8 16.4 67 18 0.6 1.9 1019.7 0.0000 0.0000
10:33 23.2 16.5 66 18 0.6 1.9 1019.8 0.0000 0.0000
10:43 23.6 16.6 65 18 0.6 1.9 1019.9 0.0000 0.0000
10:53 23.9 16.9 65 18 0.6 1.9 1019.8 0.0000 0.0000
11:03 24.1 16.9 64 18 0.6 1.9 1019.7 0.0000 0.0000
11:13 24.3 17.1 64 18 0.6 1.9 1019.7 0.0000 0.0000
11:23 24.4 17.2 64 18 0.6 1.9 1019.7 0.0000 0.0000
11:33 24.4 16.9 63 18 0.6 1.9 1019.7 0.0000 0.0000
11:43 24.5 17.2 64 18 0.6 1.9 1019.9 0.0000 0.0000
11:54 24.6 17.3 64 18 0.6 1.9 1019.8 0.0000 0.0000
12:03 24.7 17.2 63 18 0.6 1.9 1019.8 0.0000 0.0000
12:13 24.8 17 62 18 0.6 1.9 1019.7 0.0000 0.0000
12:23 24.9 17.1 62 18 0.6 1.9 1019.9 0.0000 0.0000
12:34 25.1 17.3 62 18 0.6 1.9 1019.8 0.0000 0.0000
12:43 25.3 17.2 61 18 0.6 1.9 1019.5 0.0000 0.0000
12:53 25.4 17.3 61 18 0.6 1.9 1019.6 0.0000 0.0000
13:04 25.7 17.4 60 18 0.6 1.9 1019.7 0.0000 0.0000
13:13 26 17.4 59 18 0.6 1.9 1019.5 0.0000 0.0000
13:23 26.3 17.4 58 18 0.6 1.9 1019.5 0.0000 0.0000
13:34 26.4 17.5 58 18 0.6 1.9 1019.2 0.0000 0.0000
13:44 26.7 17.5 57 18 0.6 1.9 1019.2 0.0000 0.0000
13:53 27 17.8 57 18 0.6 1.9 1019.2 0.0000 0.0000
14:03 26.8 17.6 57 18 0.6 1.9 1019.2 0.0000 0.0000
14:14 26.8 17.3 56 18 0.6 1.9 1019.2 0.0000 0.0000
14:24 26.8 17.3 56 18 0.6 1.9 1019.4 0.0000 0.0000
14:33 26.9 17.7 57 18 0.6 1.9 1019.2 0.0000 0.0000
14:44 27 17.5 56 18 0.6 1.9 1019.1 0.0000 0.0000
14:54 27 17.5 56 18 0.6 1.9 1019 0.0000 0.0000
15:04 26.9 17.4 56 18 0.6 1.9 1019 0.0000 0.0000
15:13 26.9 17.4 56 18 0.6 1.9 1019.1 0.0000 0.0000
15:24 27 17.2 55 18 0.6 1.9 1019 0.0000 0.0000
15:34 27.1 17.3 55 18 0.6 1.9 1019 0.0000 0.0000
15:44 27 16.9 54 18 0.6 1.9 1018.8 0.0000 0.0000
15:54 27 16.9 54 18 0.6 1.9 1018.8 0.0000 0.0000
16:04 27.1 17 54 18 0.6 1.9 1018.9 0.0000 0.0000
16:14 27.3 16.9 53 18 0.6 1.9 1019 0.0000 0.0000
16:24 27.4 17 53 18 0.6 1.9 1018.7 0.0000 0.0000
16:34 27.5 17.1 53 18 0.6 1.9 1018.8 0.0000 0.0000
16:44 27.6 16.9 52 18 0.6 1.9 1018.7 0.0000 0.0000
16:54 27.7 17.3 53 18 0.6 1.9 1018.6 0.0000 0.0000
17:04 27.6 16.9 52 18 0.6 1.9 1018.5 0.0000 0.0000
17:14 27.6 16.9 52 18 0.6 1.9 1018.5 0.0000 0.0000
17:24 27.5 17.1 53 18 0.6 1.9 1018.5 0.0000 0.0000
17:34 27.4 17 53 18 0.6 1.9 1018.5 0.0000 0.0000
17:44 27.4 17 53 18 0.6 1.9 1018.6 0.0000 0.0000
17:54 27.5 16.8 52 18 0.6 1.9 1018.5 0.0000 0.0000
18:04 27.4 16.7 52 18 0.6 1.9 1018.5 0.0000 0.0000
18:15 27.3 16.3 51 18 0.6 1.9 1018.5 0.0000 0.0000
18:24 27.3 16.6 52 18 0.6 1.9 1018.4 0.0000 0.0000
18:34 27.2 16.5 52 18 0.6 1.9 1018.3 0.0000 0.0000
18:44 27.1 16.7 53 18 0.6 1.9 1018.4 0.0000 0.0000
18:55 26.9 16.8 54 18 0.6 1.9 1018.2 0.0000 0.0000
19:04 26.8 17 55 18 0.6 1.9 1018.4 0.0000 0.0000
19:14 26.6 16.8 55 18 0.6 1.9 1018.3 0.0000 0.0000
19:25 26.5 16.7 55 18 0.6 1.9 1018.2 0.0000 0.0000
19:35 26.4 16.9 56 18 0.6 1.9 1018.2 0.0000 0.0000
19:44 26.3 16.8 56 18 0.6 1.9 1018.4 0.0000 0.0000
19:55 26.2 16.7 56 18 0.6 1.9 1018.4 0.0000 0.0000
20:05 26 16.8 57 18 0.6 1.9 1018.5 0.0000 0.0000

DAY STATISTIC

2018-08-20
TEMPERATURE
AVERAGE
22.5
HIGH
27.7
16:54
LOW
16.6
06:31
PRESSURE
AVERAGE
1019.1
HIGH
1020.0
09:33
LOW
1018.2
18:55
DEWPOINT
AVERAGE
15.2
HIGH
17.8
13:53
LOW
12.6
04:41
HUMIDITY
AVERAGE
64
HIGH
79
07:22
LOW
51
18:15
WIND SPEED
AVERAGE
0.6
HIGH
0.6
00:01
WIND GUST
AVERAGE
1.9
HIGH
1.9
00:01
WIND DIRECTION
PREVAILING
N
100%
N
100.0
NE
0.0
E
0.0
SE
0.0
S
0.0
SW
0.0
W
0.0
NW
0.0
PRECIPITATION
RAIN HOUR
0.0
RAIN DAY
0.0
TEMPERATURE (°C)
LOW
16.6
HIGH
27.7
AVERAGE
22.5
PRESSURE (hpa)
LOW
1018.2
HIGH
1020.0
AVERAGE
1019.1
DEVICE